Terminal Aerodrome Forecast
Issued by NWS

Home | Current Version | Previous Version | Text Only | Print | Product List | Glossary On
Versions: 1 2 3 4 5 6 7 8 9 10 11 12 13
000
FTUS43 KDMX 192332
TAFOTM
TAF
KOTM 192332Z 2000/2024 VRB05KT P6SM SKC
     FM201200 15005KT P6SM VCSH BKN150
     FM201800 17009KT P6SM BKN200=

USA.gov is the U.S. government's official web portal to all federal, state and local government web resources and services.